createdAt,value
2023-04-12T00:00:39.773Z,0.00
2023-04-12T00:01:39.380Z,0.00
2023-04-12T00:02:39.739Z,0.00
2023-04-12T00:03:40.370Z,0.00
2023-04-12T00:04:40.949Z,0.00
2023-04-12T00:05:40.743Z,0.00
2023-04-12T00:06:40.138Z,0.00
2023-04-12T00:07:40.796Z,0.00
2023-04-12T00:08:40.421Z,0.00
2023-04-12T00:09:40.650Z,0.00
2023-04-12T00:10:40.830Z,0.00
2023-04-12T00:11:42.751Z,0.00
2023-04-12T00:12:41.133Z,0.00
2023-04-12T00:13:41.307Z,0.00
2023-04-12T00:14:41.502Z,0.00
2023-04-12T00:15:41.740Z,0.00
2023-04-12T00:16:41.821Z,0.00
2023-04-12T00:17:42.819Z,0.00
2023-04-12T00:18:42.114Z,0.00
2023-04-12T00:19:42.330Z,0.00
2023-04-12T00:20:43.254Z,0.00
2023-04-12T00:21:43.257Z,0.00
2023-04-12T00:22:43.748Z,0.00
2023-04-12T00:23:42.993Z,0.00
2023-04-12T00:24:43.154Z,0.00
2023-04-12T00:25:43.307Z,0.00
2023-04-12T00:26:43.463Z,0.00
2023-04-12T00:27:43.613Z,0.00
2023-04-12T00:28:43.759Z,0.00
2023-04-12T00:29:43.897Z,0.00
2023-04-12T00:30:44.100Z,0.00
2023-04-12T00:31:44.234Z,0.00
2023-04-12T00:32:44.321Z,0.00
2023-04-12T00:33:45.753Z,0.00
2023-04-12T00:34:45.287Z,0.00
2023-04-12T00:35:44.869Z,0.00
2023-04-12T00:36:45.794Z,0.00
2023-04-12T00:37:45.756Z,0.00
2023-04-12T00:38:45.413Z,0.00
2023-04-12T00:39:47.120Z,0.00
2023-04-12T00:40:45.766Z,0.00
2023-04-12T00:41:46.789Z,0.00
2023-04-12T00:42:46.221Z,0.00
2023-04-12T00:43:46.397Z,0.00
2023-04-12T00:44:46.594Z,0.00
2023-04-12T00:45:47.620Z,0.00
2023-04-12T00:46:48.313Z,0.00
2023-04-12T00:47:47.803Z,0.00
2023-04-12T00:48:47.793Z,0.00
2023-04-12T00:49:48.297Z,0.00
2023-04-12T00:50:47.489Z,0.00
2023-04-12T00:51:48.260Z,0.00
2023-04-12T00:52:48.625Z,0.00
2023-04-12T00:53:48.152Z,0.00
2023-04-12T00:54:49.331Z,0.00
2023-04-12T00:55:49.252Z,0.00
2023-04-12T00:56:48.666Z,0.00
2023-04-12T00:57:48.845Z,0.00
2023-04-12T00:58:49.998Z,0.00
2023-04-12T00:59:50.260Z,0.00
2023-04-12T01:00:50.517Z,0.00
2023-04-12T01:01:49.582Z,0.00
2023-04-12T01:02:49.835Z,0.00
2023-04-12T01:03:49.985Z,0.00
2023-04-12T01:04:50.031Z,0.00
2023-04-12T01:05:50.208Z,0.00
2023-04-12T01:06:50.366Z,0.00
2023-04-12T01:07:51.253Z,0.00
2023-04-12T01:08:51.302Z,0.00
2023-04-12T01:09:50.988Z,0.00
2023-04-12T01:10:51.156Z,0.00
2023-04-12T01:11:53.259Z,0.00
2023-04-12T01:12:51.502Z,0.00
2023-04-12T01:13:53.254Z,0.00
2023-04-12T01:14:51.772Z,0.00
2023-04-12T01:15:52.001Z,0.00
2023-04-12T01:16:52.754Z,0.00
2023-04-12T01:17:52.458Z,0.00
2023-04-12T01:18:52.517Z,0.00
2023-04-12T01:19:53.300Z,0.00
2023-04-12T01:20:53.694Z,0.00
2023-04-12T01:21:52.981Z,0.00
2023-04-12T01:22:53.818Z,0.00
2023-04-12T01:23:53.345Z,0.00
2023-04-12T01:24:53.519Z,0.00
2023-04-12T01:25:54.277Z,0.00
2023-04-12T01:26:54.770Z,0.00
2023-04-12T01:27:54.045Z,0.00
2023-04-12T01:28:54.208Z,0.00
2023-04-12T01:29:54.375Z,0.00
2023-04-12T01:30:56.797Z,0.00
2023-04-12T01:31:54.812Z,0.00
2023-04-12T01:32:54.940Z,0.00
2023-04-12T01:33:55.204Z,0.00
2023-04-12T01:34:55.229Z,0.00
2023-04-12T01:35:56.769Z,0.00
2023-04-12T01:36:56.260Z,0.00
2023-04-12T01:37:55.756Z,0.00
2023-04-12T01:38:55.948Z,0.00
2023-04-12T01:39:56.181Z,0.00
2023-04-12T01:40:56.351Z,0.00
2023-04-12T01:41:56.512Z,0.00
2023-04-12T01:42:56.687Z,0.00
2023-04-12T01:43:57.944Z,0.00
2023-04-12T01:44:57.085Z,0.00
2023-04-12T01:45:57.328Z,0.00
2023-04-12T01:46:58.303Z,0.00
2023-04-12T01:47:57.714Z,0.00
2023-04-12T01:48:58.765Z,0.00
2023-04-12T01:49:58.055Z,0.00
2023-04-12T01:50:58.301Z,0.00
2023-04-12T01:51:59.768Z,0.00
2023-04-12T01:52:59.267Z,0.00
2023-04-12T01:53:59.002Z,0.00
2023-04-12T01:54:59.050Z,0.00
2023-04-12T01:55:59.775Z,0.00
2023-04-12T01:56:59.434Z,0.00
2023-04-12T01:57:59.578Z,0.00
2023-04-12T01:59:00.282Z,0.00
2023-04-12T02:00:01.328Z,0.00
2023-04-12T02:01:00.129Z,0.00
2023-04-12T02:02:00.828Z,0.00
2023-04-12T02:03:00.681Z,0.00
2023-04-12T02:04:01.743Z,0.00
2023-04-12T02:05:00.858Z,0.00
2023-04-12T02:06:01.777Z,0.00
2023-04-12T02:07:01.770Z,0.00
2023-04-12T02:08:01.265Z,0.00
2023-04-12T02:09:01.413Z,0.00
2023-04-12T02:10:01.554Z,0.00
2023-04-12T02:11:02.739Z,0.00
2023-04-12T02:12:02.773Z,0.00
2023-04-12T02:13:02.799Z,0.00
2023-04-12T02:14:02.194Z,0.00
2023-04-12T02:15:02.418Z,0.00
2023-04-12T02:16:04.140Z,0.00
2023-04-12T02:17:02.788Z,0.00
2023-04-12T02:18:02.967Z,0.00
2023-04-12T02:19:04.277Z,0.00
2023-04-12T02:20:03.252Z,0.00
2023-04-12T02:21:04.328Z,0.00
2023-04-12T02:22:03.589Z,0.00
2023-04-12T02:23:04.313Z,0.00
2023-04-12T02:24:04.328Z,0.00
2023-04-12T02:25:04.640Z,0.00
2023-04-12T02:26:04.283Z,0.00
2023-04-12T02:27:05.273Z,0.00
2023-04-12T02:28:04.617Z,0.00
2023-04-12T02:29:04.769Z,0.00
2023-04-12T02:30:05.774Z,0.00
2023-04-12T02:31:05.186Z,0.00
2023-04-12T02:32:05.341Z,0.00
2023-04-12T02:33:05.528Z,0.00
2023-04-12T02:34:05.675Z,0.00
2023-04-12T02:35:05.814Z,0.00
2023-04-12T02:36:06.813Z,0.00
2023-04-12T02:37:06.095Z,0.00
2023-04-12T02:38:07.144Z,0.00
2023-04-12T02:39:06.387Z,0.00
2023-04-12T02:40:06.574Z,0.00
2023-04-12T02:41:06.770Z,0.00
2023-04-12T02:42:06.923Z,0.00
2023-04-12T02:43:07.342Z,0.00
2023-04-12T02:44:07.265Z,0.00
2023-04-12T02:45:07.429Z,0.00
2023-04-12T02:46:08.358Z,0.00
2023-04-12T02:47:07.768Z,0.00
2023-04-12T02:48:09.840Z,0.00
2023-04-12T02:49:08.783Z,0.00
2023-04-12T02:50:08.330Z,0.00
2023-04-12T02:51:08.498Z,0.00
2023-04-12T02:52:09.315Z,0.00
2023-04-12T02:53:08.856Z,0.00
2023-04-12T02:54:09.033Z,0.00
2023-04-12T02:55:09.199Z,0.00
2023-04-12T02:56:09.826Z,0.00
2023-04-12T02:57:10.316Z,0.00
2023-04-12T02:58:09.728Z,0.00
2023-04-12T02:59:09.932Z,0.00
2023-04-12T03:00:10.120Z,0.00
2023-04-12T03:01:11.326Z,0.00
2023-04-12T03:02:10.513Z,0.00
2023-04-12T03:03:11.477Z,0.00
2023-04-12T03:04:12.391Z,0.00
2023-04-12T03:05:11.000Z,0.00
2023-04-12T03:06:11.787Z,0.00
2023-04-12T03:07:11.831Z,0.00
2023-04-12T03:08:11.479Z,0.00
2023-04-12T03:09:11.666Z,0.00
2023-04-12T03:10:11.821Z,0.00
2023-04-12T03:11:12.819Z,0.00
2023-04-12T03:12:12.176Z,0.00
2023-04-12T03:13:12.305Z,0.00
2023-04-12T03:14:13.286Z,0.00
2023-04-12T03:15:13.800Z,0.00
2023-04-12T03:16:13.315Z,0.00
2023-04-12T03:17:12.957Z,0.00
2023-04-12T03:18:14.289Z,0.00
2023-04-12T03:19:13.278Z,0.00
2023-04-12T03:20:14.287Z,0.00
2023-04-12T03:21:13.546Z,0.00
2023-04-12T03:22:13.696Z,0.00
2023-04-12T03:23:13.849Z,0.00
2023-04-12T03:24:14.797Z,0.00
2023-04-12T03:25:15.808Z,0.00
2023-04-12T03:26:14.302Z,0.00
2023-04-12T03:27:15.324Z,0.00
2023-04-12T03:28:14.720Z,0.00
2023-04-12T03:29:15.823Z,0.00
2023-04-12T03:30:15.073Z,0.00
2023-04-12T03:31:15.315Z,0.00
2023-04-12T03:32:17.290Z,0.00
2023-04-12T03:33:15.536Z,0.00
2023-04-12T03:34:15.694Z,0.00
2023-04-12T03:35:15.870Z,0.00
2023-04-12T03:36:16.359Z,0.00
2023-04-12T03:37:16.318Z,0.00
2023-04-12T03:38:17.527Z,0.00
2023-04-12T03:39:17.293Z,0.00
2023-04-12T03:40:19.155Z,0.00
2023-04-12T03:41:17.022Z,0.00
2023-04-12T03:42:31.699Z,0.00
2023-04-12T03:43:20.289Z,0.00
2023-04-12T03:44:18.334Z,0.00
2023-04-12T03:45:17.739Z,0.00
2023-04-12T03:46:17.973Z,0.00
2023-04-12T03:47:18.079Z,0.00
2023-04-12T03:48:18.846Z,0.00
2023-04-12T03:49:18.578Z,0.00
2023-04-12T03:50:20.290Z,0.00
2023-04-12T03:51:18.777Z,0.00
2023-04-12T03:52:18.935Z,0.00
2023-04-12T03:53:19.080Z,0.00
2023-04-12T03:54:19.281Z,0.00
2023-04-12T03:55:19.430Z,0.00
2023-04-12T03:56:19.585Z,0.00
2023-04-12T03:57:19.729Z,0.00
2023-04-12T03:58:20.830Z,0.00
2023-04-12T03:59:20.097Z,0.00
2023-04-12T04:00:20.254Z,0.00
2023-04-12T04:01:20.412Z,0.00
2023-04-12T04:02:22.418Z,0.00
2023-04-12T04:03:20.755Z,0.00
2023-04-12T04:04:21.148Z,0.00
2023-04-12T04:05:21.801Z,0.00
2023-04-12T04:06:21.801Z,0.00
2023-04-12T04:07:21.440Z,0.00
2023-04-12T04:08:22.305Z,0.00
2023-04-12T04:09:21.830Z,4.00
2023-04-12T04:10:21.985Z,0.00
2023-04-12T04:11:22.145Z,0.00
2023-04-12T04:12:22.961Z,4.00
2023-04-12T04:13:23.512Z,4.00
2023-04-12T04:14:23.302Z,4.00
2023-04-12T04:15:22.811Z,4.00
2023-04-12T04:16:23.949Z,4.00
2023-04-12T04:17:23.257Z,4.00
2023-04-12T04:18:23.365Z,8.00
2023-04-12T04:19:24.805Z,4.00
2023-04-12T04:20:25.432Z,8.00
2023-04-12T04:21:24.364Z,8.00
2023-04-12T04:22:23.990Z,12.00
2023-04-12T04:23:24.166Z,12.00
2023-04-12T04:24:24.315Z,8.00
2023-04-12T04:25:24.475Z,12.00
2023-04-12T04:26:24.709Z,12.00
2023-04-12T04:27:24.902Z,12.00
2023-04-12T04:28:25.838Z,16.00
2023-04-12T04:29:25.207Z,12.00
2023-04-12T04:30:25.355Z,20.00
2023-04-12T04:31:25.500Z,16.00
2023-04-12T04:32:25.761Z,16.00
2023-04-12T04:33:25.790Z,20.00
2023-04-12T04:34:26.816Z,24.00
2023-04-12T04:35:27.821Z,24.00
2023-04-12T04:36:27.305Z,28.00
2023-04-12T04:37:27.318Z,32.00
2023-04-12T04:38:26.578Z,32.00
2023-04-12T04:39:27.475Z,36.00
2023-04-12T04:40:27.859Z,40.00
2023-04-12T04:41:27.804Z,40.00
2023-04-12T04:42:27.316Z,48.00
2023-04-12T04:43:27.462Z,52.00
2023-04-12T04:44:28.355Z,52.00
2023-04-12T04:45:27.847Z,56.00
2023-04-12T04:46:27.910Z,60.00
2023-04-12T04:47:28.093Z,60.00
2023-04-12T04:48:28.184Z,64.00
2023-04-12T04:49:28.337Z,72.00
2023-04-12T04:50:30.324Z,80.00
2023-04-12T04:51:29.316Z,96.00
2023-04-12T04:52:28.932Z,108.00
2023-04-12T04:53:29.088Z,116.00
2023-04-12T04:54:29.848Z,116.00
2023-04-12T04:55:29.866Z,120.00
2023-04-12T04:56:29.603Z,128.00
2023-04-12T04:57:29.741Z,136.00
2023-04-12T04:58:29.891Z,140.00
2023-04-12T04:59:30.036Z,144.00
2023-04-12T05:00:30.187Z,148.00
2023-04-12T05:01:30.339Z,148.00
2023-04-12T05:02:31.447Z,144.00
2023-04-12T05:03:31.127Z,144.00
2023-04-12T05:04:31.363Z,144.00
2023-04-12T05:05:32.038Z,144.00
2023-04-12T05:06:31.818Z,152.00
2023-04-12T05:07:31.448Z,152.00
2023-04-12T05:08:31.605Z,156.00
2023-04-12T05:09:31.768Z,180.00
2023-04-12T05:10:31.893Z,188.00
2023-04-12T05:11:32.028Z,192.00
2023-04-12T05:12:32.173Z,204.00
2023-04-12T05:13:32.383Z,216.00
2023-04-12T05:14:44.453Z,232.00
2023-04-12T05:15:34.785Z,252.00
2023-04-12T05:16:32.959Z,260.00
2023-04-12T05:17:33.058Z,272.00
2023-04-12T05:18:33.250Z,292.00
2023-04-12T05:19:33.431Z,316.00
2023-04-12T05:20:33.612Z,340.00
2023-04-12T05:21:33.824Z,376.00
2023-04-12T05:22:35.316Z,404.00
2023-04-12T05:23:34.853Z,404.00
2023-04-12T05:24:34.398Z,404.00
2023-04-12T05:25:34.603Z,408.00
2023-04-12T05:26:34.754Z,408.00
2023-04-12T05:27:35.822Z,400.00
2023-04-12T05:28:35.115Z,392.00
2023-04-12T05:29:35.327Z,392.00
2023-04-12T05:30:36.400Z,396.00
2023-04-12T05:31:36.309Z,400.00
2023-04-12T05:32:35.848Z,408.00
2023-04-12T05:33:36.037Z,432.00
2023-04-12T05:34:36.238Z,472.00
2023-04-12T05:35:36.413Z,508.00
2023-04-12T05:36:36.646Z,548.00
2023-04-12T05:37:36.819Z,568.00
2023-04-12T05:38:36.959Z,600.00
2023-04-12T05:39:37.125Z,620.00
2023-04-12T05:40:37.296Z,624.00
2023-04-12T05:41:39.316Z,652.00
2023-04-12T05:42:37.693Z,660.00
2023-04-12T05:43:38.981Z,648.00
2023-04-12T05:44:38.120Z,696.00
2023-04-12T05:45:38.277Z,712.00
2023-04-12T05:46:38.612Z,728.00
2023-04-12T05:47:39.412Z,728.00
2023-04-12T05:48:38.726Z,724.00
2023-04-12T05:49:38.909Z,728.00
2023-04-12T05:50:40.321Z,724.00
2023-04-12T05:51:41.665Z,688.00
2023-04-12T05:52:40.398Z,656.00
2023-04-12T05:53:39.567Z,640.00
2023-04-12T05:54:39.734Z,616.00
2023-04-12T05:55:39.893Z,620.00
2023-04-12T05:56:40.059Z,668.00
2023-04-12T05:57:40.230Z,704.00
2023-04-12T05:58:40.423Z,684.00
2023-04-12T05:59:40.688Z,696.00
2023-04-12T06:00:41.362Z,712.00
2023-04-12T06:01:40.931Z,708.00
2023-04-12T06:02:41.224Z,696.00
2023-04-12T06:03:41.336Z,652.00
2023-04-12T06:04:49.993Z,632.00
2023-04-12T06:05:43.544Z,656.00
2023-04-12T06:06:41.690Z,660.00
2023-04-12T06:07:42.870Z,664.00
2023-04-12T06:08:43.329Z,668.00
2023-04-12T06:09:42.274Z,660.00
2023-04-12T06:10:42.470Z,644.00
2023-04-12T06:11:42.658Z,636.00
2023-04-12T06:12:42.876Z,604.00
2023-04-12T06:13:42.952Z,588.00
2023-04-12T06:14:43.832Z,596.00
2023-04-12T06:15:43.902Z,608.00
2023-04-12T06:16:43.497Z,604.00
2023-04-12T06:17:43.779Z,596.00
2023-04-12T06:18:43.896Z,624.00
2023-04-12T06:19:44.082Z,656.00
2023-04-12T06:20:44.278Z,692.00
2023-04-12T06:21:44.445Z,736.00
2023-04-12T06:22:44.647Z,780.00
2023-04-12T06:23:45.329Z,820.00
2023-04-12T06:24:44.979Z,864.00
2023-04-12T06:25:47.336Z,900.00
2023-04-12T06:26:45.336Z,924.00
2023-04-12T06:27:45.567Z,964.00
2023-04-12T06:28:45.768Z,1008.00
2023-04-12T06:29:46.015Z,1064.00
2023-04-12T06:30:46.211Z,1088.00
2023-04-12T06:31:46.454Z,1104.00
2023-04-12T06:32:46.600Z,1116.00
2023-04-12T06:33:46.721Z,1124.00
2023-04-12T06:34:46.900Z,1128.00
2023-04-12T06:35:47.204Z,1124.00
2023-04-12T06:36:47.252Z,1128.00
2023-04-12T06:37:49.330Z,1144.00
2023-04-12T06:38:48.836Z,1160.00
2023-04-12T06:39:47.863Z,1156.00
2023-04-12T06:40:48.045Z,1148.00
2023-04-12T06:41:48.837Z,1136.00
2023-04-12T06:42:48.380Z,1112.00
2023-04-12T06:43:48.648Z,1092.00
2023-04-12T06:44:50.831Z,1068.00
2023-04-12T06:45:48.993Z,1040.00
2023-04-12T06:46:49.196Z,1036.00
2023-04-12T06:47:49.359Z,1036.00
2023-04-12T06:48:49.549Z,1048.00
2023-04-12T06:49:50.757Z,1084.00
2023-04-12T06:50:49.938Z,1112.00
2023-04-12T06:51:50.161Z,1128.00
2023-04-12T06:52:51.337Z,1120.00
2023-04-12T06:53:50.475Z,1112.00
2023-04-12T06:54:50.712Z,1108.00
2023-04-12T06:55:50.904Z,1104.00
2023-04-12T06:56:51.142Z,1116.00
2023-04-12T06:57:51.225Z,1136.00
2023-04-12T06:58:53.340Z,1148.00
2023-04-12T06:59:51.598Z,1152.00
2023-04-12T07:00:51.828Z,1144.00
2023-04-12T07:01:52.084Z,1124.00
2023-04-12T07:02:52.936Z,1108.00
2023-04-12T07:03:53.402Z,1084.00
2023-04-12T07:04:53.343Z,1100.00
2023-04-12T07:05:52.733Z,1152.00
2023-04-12T07:06:52.894Z,1268.00
2023-04-12T07:07:53.034Z,1412.00
2023-04-12T07:08:53.934Z,1544.00
2023-04-12T07:09:53.392Z,1668.00
2023-04-12T07:10:53.543Z,1764.00
2023-04-12T07:11:53.701Z,1828.00
2023-04-12T07:12:53.885Z,1868.00
2023-04-12T07:13:54.037Z,1900.00
2023-04-12T07:14:54.842Z,1936.00
2023-04-12T07:15:54.673Z,1996.00
2023-04-12T07:16:54.751Z,2076.00
2023-04-12T07:17:54.848Z,2152.00
2023-04-12T07:18:55.145Z,2184.00
2023-04-12T07:19:56.336Z,2208.00
2023-04-12T07:20:56.205Z,2292.00
2023-04-12T07:21:55.565Z,2372.00
2023-04-12T07:22:55.697Z,2432.00
2023-04-12T07:23:56.012Z,2432.00
2023-04-12T07:24:56.000Z,2388.00
2023-04-12T07:25:56.156Z,2300.00
2023-04-12T07:26:57.336Z,2172.00
2023-04-12T07:27:57.374Z,2072.00
2023-04-12T07:28:56.904Z,2048.00
2023-04-12T07:29:56.873Z,2124.00
2023-04-12T07:30:57.047Z,2292.00
2023-04-12T07:31:57.212Z,2548.00
2023-04-12T07:33:08.385Z,2832.00
2023-04-12T07:33:59.705Z,3100.00
2023-04-12T07:34:59.840Z,3328.00
2023-04-12T07:35:57.968Z,3532.00
2023-04-12T07:36:58.840Z,3728.00
2023-04-12T07:37:58.369Z,3900.00
2023-04-12T07:39:00.883Z,4132.00
2023-04-12T07:39:58.816Z,4256.00
2023-04-12T07:40:59.894Z,4560.00
2023-04-12T07:41:59.063Z,4820.00
2023-04-12T07:42:59.294Z,4908.00
2023-04-12T07:44:00.356Z,4652.00
2023-04-12T07:44:59.644Z,4404.00
2023-04-12T07:45:59.848Z,4468.00
2023-04-12T07:47:00.126Z,5260.00
2023-04-12T07:48:00.219Z,6500.00
2023-04-12T07:49:00.400Z,7512.00
2023-04-12T07:50:00.610Z,7652.00
2023-04-12T07:51:00.786Z,6944.00
2023-04-12T07:52:01.857Z,6240.00
2023-04-12T07:53:01.849Z,5884.00
2023-04-12T07:54:01.892Z,5572.00
2023-04-12T07:55:01.922Z,5600.00
2023-04-12T07:56:01.701Z,5472.00
2023-04-12T07:57:01.934Z,5684.00
2023-04-12T07:58:02.846Z,5764.00
2023-04-12T07:59:02.277Z,5756.00
2023-04-12T08:00:02.515Z,5560.00
2023-04-12T08:01:02.596Z,4604.00
2023-04-12T08:02:03.029Z,4256.00
2023-04-12T08:03:03.158Z,4064.00
2023-04-12T08:04:04.626Z,4016.00
2023-04-12T08:05:03.415Z,4224.00
2023-04-12T08:06:03.667Z,4500.00
2023-04-12T08:07:04.350Z,4792.00
2023-04-12T08:08:03.897Z,4604.00
2023-04-12T08:09:04.108Z,4364.00
2023-04-12T08:10:04.279Z,4144.00
2023-04-12T08:11:05.396Z,4000.00
2023-04-12T08:12:04.637Z,3780.00
2023-04-12T08:13:04.795Z,3844.00
2023-04-12T08:14:05.026Z,4088.00
2023-04-12T08:15:05.863Z,4532.00
2023-04-12T08:16:05.478Z,4968.00
2023-04-12T08:17:07.220Z,5780.00
2023-04-12T08:18:05.769Z,5592.00
2023-04-12T08:19:05.859Z,6004.00
2023-04-12T08:20:06.895Z,5792.00
2023-04-12T08:21:06.150Z,6336.00
2023-04-12T08:22:06.303Z,7616.00
2023-04-12T08:23:07.446Z,7240.00
2023-04-12T08:24:07.360Z,7332.00
2023-04-12T08:25:06.748Z,8040.00
2023-04-12T08:26:22.901Z,7664.00
2023-04-12T08:27:07.851Z,6304.00
2023-04-12T08:28:08.860Z,5620.00
2023-04-12T08:29:08.370Z,5680.00
2023-04-12T08:30:08.409Z,8768.00
2023-04-12T08:31:08.412Z,14968.00
2023-04-12T08:32:09.905Z,13496.00
2023-04-12T08:33:08.911Z,16576.00
2023-04-12T08:34:08.291Z,13016.00
2023-04-12T08:35:09.396Z,12244.00
2023-04-12T08:36:08.701Z,11360.00
2023-04-12T08:37:08.796Z,15984.00
2023-04-12T08:38:08.939Z,15976.00
2023-04-12T08:39:09.116Z,11896.00
2023-04-12T08:40:09.333Z,11920.00
2023-04-12T08:41:09.448Z,11860.00
2023-04-12T08:42:10.357Z,9860.00
2023-04-12T08:43:10.991Z,10408.00
2023-04-12T08:44:10.027Z,9620.00
2023-04-12T08:45:11.358Z,8668.00
2023-04-12T08:46:10.357Z,8416.00
2023-04-12T08:47:13.439Z,9004.00
2023-04-12T08:48:10.667Z,6956.00
2023-04-12T08:49:10.849Z,6008.00
2023-04-12T08:50:11.059Z,5796.00
2023-04-12T08:51:12.365Z,5788.00
2023-04-12T08:52:11.897Z,5428.00
2023-04-12T08:53:11.545Z,5112.00
2023-04-12T08:54:13.864Z,4508.00
2023-04-12T08:55:11.869Z,4372.00
2023-04-12T08:56:12.028Z,4276.00
2023-04-12T08:57:12.229Z,4076.00
2023-04-12T08:58:12.391Z,4156.00
2023-04-12T08:59:12.558Z,3836.00
2023-04-12T09:00:12.707Z,3784.00
2023-04-12T09:01:12.858Z,3896.00
2023-04-12T09:02:13.117Z,4148.00
2023-04-12T09:03:13.563Z,4400.00
2023-04-12T09:04:13.527Z,4604.00
2023-04-12T09:05:13.706Z,5048.00
2023-04-12T09:06:13.865Z,5300.00
2023-04-12T09:07:14.874Z,5500.00
2023-04-12T09:08:14.220Z,5772.00
2023-04-12T09:09:14.866Z,6060.00
2023-04-12T09:10:14.495Z,6516.00
2023-04-12T09:11:14.662Z,7080.00
2023-04-12T09:12:14.940Z,8112.00
2023-04-12T09:13:14.979Z,8736.00
2023-04-12T09:14:15.123Z,7920.00
2023-04-12T09:15:15.320Z,7928.00
2023-04-12T09:16:15.458Z,8328.00
2023-04-12T09:17:15.656Z,7876.00
2023-04-12T09:18:17.399Z,7552.00
2023-04-12T09:19:17.108Z,7184.00
2023-04-12T09:20:16.122Z,6772.00
2023-04-12T09:21:50.340Z,6384.00
2023-04-12T09:22:16.965Z,6120.00
2023-04-12T09:23:16.584Z,5732.00
2023-04-12T09:24:16.736Z,5728.00
2023-04-12T09:25:18.921Z,5900.00
2023-04-12T09:26:17.913Z,6352.00
2023-04-12T09:27:17.272Z,6936.00
2023-04-12T09:28:17.432Z,7676.00
2023-04-12T09:29:17.621Z,8664.00
2023-04-12T09:30:17.843Z,9796.00
2023-04-12T09:31:18.969Z,9920.00
2023-04-12T09:32:18.960Z,8888.00
2023-04-12T09:33:18.363Z,7972.00
2023-04-12T09:34:18.568Z,7060.00
2023-04-12T09:35:18.840Z,6364.00
2023-04-12T09:36:18.833Z,6028.00
2023-04-12T09:37:18.959Z,5972.00
2023-04-12T09:38:19.134Z,5992.00
2023-04-12T09:39:19.310Z,5664.00
2023-04-12T09:40:20.425Z,5280.00
2023-04-12T09:41:21.520Z,5016.00
2023-04-12T09:42:33.316Z,4964.00
2023-04-12T09:43:22.170Z,5084.00
2023-04-12T09:44:20.313Z,5272.00
2023-04-12T09:45:20.521Z,5504.00
2023-04-12T09:46:21.466Z,5748.00
2023-04-12T09:47:21.003Z,5820.00
2023-04-12T09:48:21.916Z,6336.00
2023-04-12T09:49:21.330Z,6436.00
2023-04-12T09:50:22.469Z,5996.00
2023-04-12T09:51:21.753Z,5692.00
2023-04-12T09:52:43.856Z,5572.00
2023-04-12T09:53:23.882Z,5544.00
2023-04-12T09:54:22.258Z,5452.00
2023-04-12T09:55:23.001Z,5632.00
2023-04-12T09:56:22.590Z,5700.00
2023-04-12T09:57:22.777Z,5640.00
2023-04-12T09:58:23.946Z,5392.00
2023-04-12T09:59:24.045Z,4968.00
2023-04-12T10:00:24.011Z,4492.00
2023-04-12T10:01:24.956Z,4956.00
2023-04-12T10:02:25.076Z,5668.00
2023-04-12T10:03:24.054Z,6448.00
2023-04-12T10:04:24.383Z,7220.00
2023-04-12T10:05:25.172Z,7056.00
2023-04-12T10:06:25.436Z,6768.00
2023-04-12T10:07:25.589Z,6848.00
2023-04-12T10:08:24.877Z,7060.00
2023-04-12T10:09:25.063Z,7448.00
2023-04-12T10:10:25.233Z,7684.00
2023-04-12T10:11:25.464Z,8048.00
2023-04-12T10:12:25.531Z,8420.00
2023-04-12T10:13:25.722Z,8832.00
2023-04-12T10:14:27.420Z,9044.00
2023-04-12T10:15:26.950Z,8564.00
2023-04-12T10:16:26.375Z,7700.00
2023-04-12T10:17:26.525Z,7264.00
2023-04-12T10:18:27.284Z,7188.00
2023-04-12T10:19:26.820Z,6816.00
2023-04-12T10:20:29.598Z,6488.00
2023-04-12T10:21:28.187Z,6316.00
2023-04-12T10:22:27.350Z,6044.00
2023-04-12T10:23:28.454Z,5896.00
2023-04-12T10:24:27.745Z,5960.00
2023-04-12T10:25:27.918Z,5920.00
2023-04-12T10:26:28.082Z,5380.00
2023-04-12T10:27:28.935Z,4768.00
2023-04-12T10:28:28.442Z,4456.00
2023-04-12T10:29:29.490Z,4404.00
2023-04-12T10:30:29.544Z,4656.00
2023-04-12T10:31:29.024Z,5044.00
2023-04-12T10:32:29.122Z,5516.00
2023-04-12T10:33:30.050Z,6028.00
2023-04-12T10:34:29.413Z,6352.00
2023-04-12T10:35:30.160Z,7240.00
2023-04-12T10:36:31.473Z,8472.00
2023-04-12T10:37:29.893Z,9140.00
2023-04-12T10:38:32.440Z,9660.00
2023-04-12T10:39:30.956Z,9480.00
2023-04-12T10:40:30.340Z,8520.00
2023-04-12T10:41:30.568Z,7772.00
2023-04-12T10:42:30.760Z,7384.00
2023-04-12T10:43:30.964Z,7168.00
2023-04-12T10:44:31.151Z,7544.00
2023-04-12T10:45:31.335Z,8176.00
2023-04-12T10:46:31.510Z,8400.00
2023-04-12T10:47:32.535Z,7152.00
2023-04-12T10:48:31.933Z,9408.00
2023-04-12T10:49:32.020Z,10016.00
2023-04-12T10:50:32.813Z,12532.00
2023-04-12T10:51:32.345Z,10232.00
2023-04-12T10:52:32.478Z,9152.00
2023-04-12T10:53:35.798Z,8672.00
2023-04-12T10:54:33.481Z,8156.00
2023-04-12T10:55:33.994Z,7584.00
2023-04-12T10:56:33.342Z,7088.00
2023-04-12T10:57:34.392Z,7180.00
2023-04-12T10:58:33.553Z,7672.00
2023-04-12T10:59:46.944Z,8060.00
2023-04-12T11:00:35.998Z,7900.00
2023-04-12T11:01:36.708Z,7544.00
2023-04-12T11:02:34.465Z,6556.00
2023-04-12T11:03:36.056Z,7640.00
2023-04-12T11:04:34.674Z,7392.00
2023-04-12T11:05:34.743Z,6680.00
2023-04-12T11:06:35.302Z,5788.00
2023-04-12T11:07:35.484Z,5864.00
2023-04-12T11:08:35.138Z,6348.00
2023-04-12T11:09:35.976Z,6816.00
2023-04-12T11:10:35.541Z,6128.00
2023-04-12T11:11:35.693Z,6200.00
2023-04-12T11:12:35.896Z,6628.00
2023-04-12T11:13:36.070Z,8196.00
2023-04-12T11:14:36.283Z,8408.00
2023-04-12T11:15:36.453Z,9000.00
2023-04-12T11:16:36.650Z,12616.00
2023-04-12T11:17:37.929Z,9552.00
2023-04-12T11:18:38.072Z,7204.00
2023-04-12T11:19:38.455Z,6020.00
2023-04-12T11:20:37.374Z,6224.00
2023-04-12T11:21:38.495Z,7920.00
2023-04-12T11:22:37.820Z,8576.00
2023-04-12T11:23:37.992Z,8612.00
2023-04-12T11:24:38.186Z,7788.00
2023-04-12T11:25:38.360Z,7100.00
2023-04-12T11:26:40.440Z,6632.00
2023-04-12T11:27:39.441Z,6276.00
2023-04-12T11:28:38.836Z,6676.00
2023-04-12T11:29:40.447Z,7316.00
2023-04-12T11:30:40.943Z,6676.00
2023-04-12T11:31:39.620Z,5564.00
2023-04-12T11:32:40.484Z,4668.00
2023-04-12T11:33:39.770Z,4220.00
2023-04-12T11:34:39.943Z,3848.00
2023-04-12T11:35:40.135Z,3424.00
2023-04-12T11:36:40.983Z,3264.00
2023-04-12T11:37:40.993Z,3212.00
2023-04-12T11:38:40.686Z,2792.00
2023-04-12T11:39:40.764Z,2588.00
2023-04-12T11:40:40.899Z,2344.00
2023-04-12T11:41:41.068Z,2504.00
2023-04-12T11:42:41.261Z,3172.00
2023-04-12T11:43:41.947Z,3624.00
2023-04-12T11:44:56.122Z,3692.00
2023-04-12T11:45:43.784Z,4044.00
2023-04-12T11:46:42.443Z,4416.00
2023-04-12T11:47:42.964Z,4844.00
2023-04-12T11:48:42.239Z,5036.00
2023-04-12T11:49:42.943Z,5184.00
2023-04-12T11:50:43.945Z,5244.00
2023-04-12T11:51:42.829Z,5696.00
2023-04-12T11:52:43.002Z,6232.00
2023-04-12T11:53:44.942Z,6436.00
2023-04-12T11:54:44.444Z,6292.00
2023-04-12T11:55:43.465Z,6000.00
2023-04-12T11:56:43.644Z,6348.00
2023-04-12T11:57:43.833Z,6588.00
2023-04-12T11:58:44.947Z,7060.00
2023-04-12T11:59:44.253Z,6876.00
2023-04-12T12:00:44.394Z,6864.00
2023-04-12T12:01:45.555Z,6416.00
2023-04-12T12:02:56.050Z,5644.00
2023-04-12T12:03:47.654Z,4992.00
2023-04-12T12:04:46.082Z,4288.00
2023-04-12T12:05:46.405Z,3928.00
2023-04-12T12:06:46.702Z,3888.00
2023-04-12T12:07:45.471Z,4012.00
2023-04-12T12:08:45.656Z,4200.00
2023-04-12T12:09:46.454Z,4396.00
2023-04-12T12:11:04.010Z,4484.00
2023-04-12T12:11:48.101Z,4416.00
2023-04-12T12:12:47.051Z,4232.00
2023-04-12T12:13:47.510Z,3940.00
2023-04-12T12:14:46.809Z,3788.00
2023-04-12T12:15:47.050Z,3792.00
2023-04-12T12:16:47.133Z,3636.00
2023-04-12T12:17:48.003Z,3516.00
2023-04-12T12:18:47.908Z,3408.00
2023-04-12T12:19:49.458Z,3224.00
2023-04-12T12:20:47.861Z,3016.00
2023-04-12T12:21:48.069Z,2804.00
2023-04-12T12:22:49.953Z,2656.00
2023-04-12T12:23:48.968Z,2712.00
2023-04-12T12:24:48.630Z,2896.00
2023-04-12T12:25:48.823Z,3144.00
2023-04-12T12:26:50.455Z,3624.00
2023-04-12T12:27:50.526Z,4360.00
2023-04-12T12:28:49.985Z,5060.00
2023-04-12T12:29:50.456Z,5696.00
2023-04-12T12:30:49.867Z,5836.00
2023-04-12T12:31:51.097Z,5956.00
2023-04-12T12:32:50.292Z,5868.00
2023-04-12T12:33:51.465Z,5928.00
2023-04-12T12:34:51.332Z,5780.00
2023-04-12T12:35:51.452Z,5120.00